createdAt,value
2018-12-17T00:00:39.270Z,89.72
2018-12-17T00:03:05.499Z,101.12
2018-12-17T00:05:31.831Z,93.30
2018-12-17T00:07:58.160Z,97.42
2018-12-17T00:10:24.470Z,95.72
2018-12-17T00:12:50.795Z,99.52
2018-12-17T00:15:17.214Z,101.97
2018-12-17T00:17:43.671Z,92.25
2018-12-17T00:20:09.940Z,97.50
2018-12-17T00:22:36.278Z,82.80
2018-12-17T00:25:03.029Z,90.28
2018-12-17T00:27:29.241Z,91.10
2018-12-17T00:29:55.537Z,88.70
2018-12-17T00:32:21.858Z,92.15
2018-12-17T00:34:48.138Z,97.92
2018-12-17T00:37:14.470Z,74.42
2018-12-17T00:39:40.864Z,84.75
2018-12-17T00:42:07.048Z,87.82
2018-12-17T00:44:33.420Z,86.22
2018-12-17T00:47:01.215Z,97.80
2018-12-17T00:49:28.551Z,87.00
2018-12-17T00:51:55.435Z,87.35
2018-12-17T00:54:22.700Z,94.00
2018-12-17T00:56:48.910Z,85.72
2018-12-17T00:59:15.253Z,84.55
2018-12-17T01:01:41.627Z,87.27
2018-12-17T01:04:07.642Z,83.17
2018-12-17T01:06:33.932Z,85.32
2018-12-17T01:09:00.150Z,81.17
2018-12-17T01:11:26.380Z,83.37
2018-12-17T01:13:52.696Z,80.35
2018-12-17T01:16:18.803Z,70.35
2018-12-17T01:18:45.119Z,82.62
2018-12-17T01:21:11.312Z,79.95
2018-12-17T01:23:37.608Z,78.87
2018-12-17T01:26:04.673Z,76.28
2018-12-17T01:28:30.937Z,77.35
2018-12-17T01:30:57.153Z,72.42
2018-12-17T01:33:23.542Z,82.72
2018-12-17T01:35:49.689Z,77.37
2018-12-17T01:38:16.358Z,83.20
2018-12-17T01:40:42.470Z,83.10
2018-12-17T01:45:42.913Z,77.40
2018-12-17T01:48:08.913Z,97.20
2018-12-17T01:50:35.096Z,73.75
2018-12-17T01:53:02.227Z,80.28
2018-12-17T01:55:28.231Z,78.57
2018-12-17T01:57:54.238Z,78.60
2018-12-17T02:00:20.480Z,77.17
2018-12-17T02:02:46.691Z,78.57
2018-12-17T02:05:15.210Z,70.37
2018-12-17T02:07:41.330Z,75.95
2018-12-17T02:10:07.621Z,67.12
2018-12-17T02:12:33.997Z,81.32
2018-12-17T02:15:00.166Z,74.47
2018-12-17T02:17:26.387Z,69.30
2018-12-17T02:19:52.796Z,68.45
2018-12-17T02:22:19.054Z,87.92
2018-12-17T02:24:45.361Z,78.17
2018-12-17T02:27:11.599Z,74.53
2018-12-17T02:29:37.770Z,77.42
2018-12-17T02:32:04.915Z,77.03
2018-12-17T02:34:30.963Z,71.60
2018-12-17T02:36:57.180Z,73.55
2018-12-17T02:39:23.370Z,79.97
2018-12-17T02:41:49.574Z,81.05
2018-12-17T02:44:16.050Z,76.72
2018-12-17T02:46:42.244Z,65.45
2018-12-17T02:49:08.409Z,72.22
2018-12-17T02:51:36.527Z,74.22
2018-12-17T02:54:02.773Z,72.53
2018-12-17T02:56:28.997Z,68.50
2018-12-17T02:58:55.179Z,82.88
2018-12-17T03:01:21.373Z,76.07
2018-12-17T03:03:47.622Z,73.75
2018-12-17T03:06:13.838Z,74.72
2018-12-17T03:08:40.057Z,80.35
2018-12-17T03:11:06.250Z,87.12
2018-12-17T03:13:32.375Z,94.92
2018-12-17T03:15:58.772Z,87.95
2018-12-17T03:18:25.128Z,109.57
2018-12-17T03:20:51.433Z,84.00
2018-12-17T03:23:17.832Z,85.90
2018-12-17T03:25:46.095Z,80.67
2018-12-17T03:28:12.342Z,98.87
2018-12-17T03:30:38.535Z,86.35
2018-12-17T03:33:04.651Z,92.67
2018-12-17T03:35:31.935Z,94.05
2018-12-17T03:37:57.977Z,95.87
2018-12-17T03:40:24.282Z,86.78
2018-12-17T03:42:50.535Z,98.03
2018-12-17T03:45:16.687Z,78.52
2018-12-17T03:47:43.838Z,82.53
2018-12-17T03:50:10.300Z,84.13
2018-12-17T03:52:36.593Z,84.40
2018-12-17T03:55:03.489Z,89.97
2018-12-17T03:57:29.768Z,76.87
2018-12-17T03:59:57.083Z,82.20
2018-12-17T04:02:23.262Z,82.10
2018-12-17T04:04:49.693Z,78.78
2018-12-17T04:07:15.942Z,105.58
2018-12-17T04:09:42.148Z,88.05
2018-12-17T04:12:09.845Z,77.67
2018-12-17T04:14:36.044Z,77.40
2018-12-17T04:17:02.299Z,81.08
2018-12-17T04:19:30.500Z,69.70
2018-12-17T04:21:56.719Z,78.42
2018-12-17T04:24:22.950Z,71.75
2018-12-17T04:26:49.263Z,83.47
2018-12-17T04:29:15.676Z,68.42
2018-12-17T04:31:41.916Z,82.97
2018-12-17T04:34:08.137Z,72.35
2018-12-17T04:36:34.360Z,66.22
2018-12-17T04:39:00.666Z,67.05
2018-12-17T04:41:26.782Z,66.47
2018-12-17T04:43:54.124Z,62.88
2018-12-17T04:46:20.361Z,65.52
2018-12-17T04:48:46.481Z,64.45
2018-12-17T04:51:13.474Z,69.55
2018-12-17T04:53:41.981Z,64.03
2018-12-17T04:56:18.008Z,73.42
2018-12-17T04:58:47.908Z,62.43
2018-12-17T05:01:14.158Z,57.98
2018-12-17T05:03:40.652Z,72.05
2018-12-17T05:06:07.736Z,61.08
2018-12-17T05:08:35.084Z,57.75
2018-12-17T05:11:02.875Z,59.27
2018-12-17T05:13:29.364Z,65.42
2018-12-17T05:15:55.775Z,65.97
2018-12-17T05:18:21.755Z,52.93
2018-12-17T05:20:48.108Z,60.38
2018-12-17T05:23:14.267Z,60.65
2018-12-17T05:25:40.411Z,63.48
2018-12-17T05:28:08.822Z,63.83
2018-12-17T05:33:33.573Z,62.10
2018-12-17T05:36:00.083Z,55.25
2018-12-17T05:38:26.175Z,62.53
2018-12-17T05:40:56.235Z,57.43
2018-12-17T05:43:22.446Z,58.78
2018-12-17T05:45:48.588Z,71.42
2018-12-17T05:48:15.769Z,61.33
2018-12-17T05:50:42.155Z,73.70
2018-12-17T05:53:08.468Z,80.93
2018-12-17T05:55:34.763Z,72.33
2018-12-17T05:58:01.492Z,93.10
2018-12-17T06:00:28.310Z,62.17
2018-12-17T06:02:54.534Z,76.80
2018-12-17T06:05:20.940Z,86.75
2018-12-17T06:07:47.118Z,83.55
2018-12-17T06:10:13.296Z,81.20
2018-12-17T06:12:39.750Z,93.35
2018-12-17T06:15:07.201Z,97.92
2018-12-17T06:17:34.277Z,92.22
2018-12-17T06:20:00.881Z,99.37
2018-12-17T06:22:27.325Z,108.37
2018-12-17T06:24:53.427Z,132.75
2018-12-17T06:27:19.711Z,138.30
2018-12-17T06:29:46.342Z,105.52
2018-12-17T06:32:12.678Z,126.92
2018-12-17T06:34:38.863Z,120.05
2018-12-17T06:37:05.083Z,120.15
2018-12-17T06:39:31.402Z,104.70
2018-12-17T06:41:58.602Z,119.77
2018-12-17T06:44:24.797Z,114.40
2018-12-17T06:46:51.151Z,130.70
2018-12-17T06:49:17.496Z,140.82
2018-12-17T06:51:52.790Z,125.20
2018-12-17T06:54:19.871Z,159.95
2018-12-17T06:56:46.103Z,119.90
2018-12-17T06:59:12.535Z,147.68
2018-12-17T07:01:43.281Z,156.37
2018-12-17T07:04:10.628Z,147.30
2018-12-17T07:06:36.915Z,164.62
2018-12-17T07:09:04.648Z,132.00
2018-12-17T07:11:31.020Z,142.22
2018-12-17T07:13:57.353Z,141.50
2018-12-17T07:16:24.579Z,146.30
2018-12-17T07:18:50.876Z,129.97
2018-12-17T07:21:17.196Z,134.72
2018-12-17T07:23:45.319Z,131.50
2018-12-17T07:26:11.467Z,142.45
2018-12-17T07:28:37.676Z,174.82
2018-12-17T07:31:11.709Z,169.57
2018-12-17T07:33:41.070Z,149.85
2018-12-17T07:36:07.354Z,149.27
2018-12-17T07:38:33.856Z,136.43
2018-12-17T07:41:00.124Z,176.27
2018-12-17T07:43:27.477Z,146.50
2018-12-17T07:45:53.887Z,125.20
2018-12-17T07:48:20.148Z,129.42
2018-12-17T07:50:46.409Z,143.95
2018-12-17T07:53:12.710Z,131.47
2018-12-17T07:55:39.084Z,156.87
2018-12-17T07:58:06.208Z,139.20
2018-12-17T08:00:32.581Z,148.85
2018-12-17T08:02:59.155Z,155.30
2018-12-17T08:05:25.353Z,144.10
2018-12-17T08:07:54.171Z,143.02
2018-12-17T08:10:20.312Z,136.68
2018-12-17T08:12:46.727Z,149.23
2018-12-17T08:15:12.970Z,165.07
2018-12-17T08:17:41.243Z,144.85
2018-12-17T08:20:07.567Z,150.45
2018-12-17T08:22:34.013Z,161.70
2018-12-17T08:25:02.249Z,141.10
2018-12-17T08:27:28.636Z,154.70
2018-12-17T08:29:54.842Z,160.15
2018-12-17T08:32:21.235Z,147.40
2018-12-17T08:34:50.315Z,144.15
2018-12-17T08:37:19.647Z,169.97
2018-12-17T08:39:46.335Z,157.75
2018-12-17T08:42:13.458Z,155.00
2018-12-17T08:44:41.649Z,133.40
2018-12-17T08:47:18.400Z,140.32
2018-12-17T08:49:44.714Z,128.27
2018-12-17T08:52:13.038Z,162.77
2018-12-17T08:54:43.702Z,142.32
2018-12-17T08:57:11.200Z,129.25
2018-12-17T08:59:38.254Z,137.45
2018-12-17T09:02:04.620Z,145.87
2018-12-17T09:04:30.943Z,131.43
2018-12-17T09:06:57.278Z,128.95
2018-12-17T09:09:23.619Z,120.20
2018-12-17T09:11:49.866Z,126.12
2018-12-17T09:14:19.862Z,129.93
2018-12-17T09:16:46.146Z,109.87
2018-12-17T09:19:12.481Z,141.40
2018-12-17T09:21:38.865Z,126.33
2018-12-17T09:24:05.164Z,110.00
2018-12-17T09:26:35.237Z,96.87
2018-12-17T09:29:02.580Z,109.50
2018-12-17T09:31:28.897Z,102.90
2018-12-17T09:33:56.594Z,97.08
2018-12-17T09:36:23.964Z,86.60
2018-12-17T09:38:52.342Z,89.25
2018-12-17T09:41:18.652Z,92.55
2018-12-17T09:43:48.260Z,103.30
2018-12-17T09:46:18.856Z,78.70
2018-12-17T09:48:45.015Z,74.37
2018-12-17T09:51:11.409Z,91.80
2018-12-17T09:53:37.617Z,77.27
2018-12-17T09:56:04.035Z,66.02
2018-12-17T09:58:30.453Z,82.77
2018-12-17T10:00:56.786Z,64.30
2018-12-17T10:03:22.995Z,68.67
2018-12-17T10:05:49.264Z,54.23
2018-12-17T10:08:16.292Z,56.00
2018-12-17T10:10:50.771Z,61.23
2018-12-17T10:13:20.197Z,63.23
2018-12-17T10:15:47.338Z,59.23
2018-12-17T10:18:14.587Z,57.90
2018-12-17T10:20:41.099Z,58.90
2018-12-17T10:23:07.709Z,61.17
2018-12-17T10:25:33.936Z,53.30
2018-12-17T10:28:00.239Z,60.20
2018-12-17T10:30:32.431Z,48.90
2018-12-17T10:32:55.069Z,50.43
2018-12-17T10:35:21.211Z,57.53
2018-12-17T10:37:48.517Z,59.30
2018-12-17T10:40:14.834Z,51.00
2018-12-17T10:42:41.208Z,47.70
2018-12-17T10:45:07.392Z,48.10
2018-12-17T10:47:33.764Z,45.67
2018-12-17T10:50:01.228Z,47.10
2018-12-17T10:52:27.495Z,45.17
2018-12-17T10:54:54.720Z,50.07
2018-12-17T10:57:20.945Z,49.60
2018-12-17T10:59:48.308Z,44.10
2018-12-17T11:02:18.773Z,45.88
2018-12-17T11:04:51.093Z,50.17
2018-12-17T11:07:21.411Z,48.50
2018-12-17T11:09:47.682Z,39.80
2018-12-17T11:12:17.277Z,42.97
2018-12-17T11:14:43.529Z,44.83
2018-12-17T11:17:09.933Z,42.55
2018-12-17T11:19:38.317Z,49.48
2018-12-17T11:22:04.555Z,45.35
2018-12-17T11:24:30.646Z,45.45
2018-12-17T11:26:58.831Z,45.03
2018-12-17T11:29:26.217Z,46.83
2018-12-17T11:31:59.391Z,43.83
2018-12-17T11:34:30.519Z,48.65
2018-12-17T11:36:57.827Z,46.77
2018-12-17T11:39:24.493Z,44.50
2018-12-17T11:41:52.910Z,50.98
2018-12-17T11:44:19.104Z,48.67
2018-12-17T11:46:45.275Z,47.35
2018-12-17T11:49:14.142Z,46.80
2018-12-17T11:51:40.365Z,55.48
2018-12-17T11:54:06.652Z,44.37
2018-12-17T11:56:42.808Z,45.40
2018-12-17T11:59:08.971Z,41.85
2018-12-17T12:01:35.512Z,42.87
2018-12-17T12:04:03.750Z,42.17
2018-12-17T12:06:30.138Z,36.23
2018-12-17T12:08:56.350Z,38.20
2018-12-17T12:11:22.584Z,38.70
2018-12-17T12:13:48.837Z,44.55
2018-12-17T12:16:16.258Z,39.13
2018-12-17T12:18:42.682Z,37.30
2018-12-17T12:21:09.951Z,34.87
2018-12-17T12:23:36.107Z,36.25
2018-12-17T12:26:03.379Z,36.97
2018-12-17T12:28:29.542Z,42.38
2018-12-17T12:31:00.448Z,42.62
2018-12-17T12:33:25.367Z,31.17
2018-12-17T12:35:52.724Z,38.48
2018-12-17T12:38:19.762Z,39.55
2018-12-17T12:40:55.876Z,42.53
2018-12-17T12:43:25.334Z,42.83
2018-12-17T12:45:52.492Z,43.85
2018-12-17T12:48:20.641Z,45.67
2018-12-17T12:50:46.792Z,44.00
2018-12-17T12:53:13.329Z,47.87
2018-12-17T12:55:39.541Z,48.50
2018-12-17T12:58:05.725Z,47.60
2018-12-17T13:00:36.147Z,44.38
2018-12-17T13:03:02.402Z,39.20
2018-12-17T13:05:28.696Z,45.17
2018-12-17T13:07:54.930Z,40.77
2018-12-17T13:10:20.986Z,44.00
2018-12-17T13:12:47.216Z,41.97
2018-12-17T13:15:14.578Z,44.80
2018-12-17T13:17:40.633Z,44.60
2018-12-17T13:20:07.031Z,41.10
2018-12-17T13:22:34.149Z,43.50
2018-12-17T13:25:06.740Z,45.80
2018-12-17T13:27:36.470Z,39.83
2018-12-17T13:30:04.533Z,40.30
2018-12-17T13:32:30.575Z,44.47
2018-12-17T13:35:00.337Z,44.70
2018-12-17T13:37:27.576Z,46.17
2018-12-17T13:39:53.780Z,46.87
2018-12-17T13:42:19.873Z,43.87
2018-12-17T13:44:46.375Z,51.43
2018-12-17T13:47:12.470Z,43.47
2018-12-17T13:49:38.732Z,40.73
2018-12-17T13:52:11.104Z,39.10
2018-12-17T13:54:37.172Z,45.80
2018-12-17T13:57:03.659Z,40.53
2018-12-17T13:59:30.535Z,42.47
2018-12-17T14:01:56.697Z,45.97
2018-12-17T14:04:24.063Z,48.07
2018-12-17T14:06:51.283Z,49.17
2018-12-17T14:09:19.831Z,47.87
2018-12-17T14:11:46.561Z,50.97
2018-12-17T14:14:13.898Z,49.07
2018-12-17T14:16:46.520Z,52.00
2018-12-17T14:19:16.482Z,46.43
2018-12-17T14:21:48.738Z,45.37
2018-12-17T14:24:14.786Z,48.03
2018-12-17T14:26:41.013Z,46.10
2018-12-17T14:29:07.244Z,47.73
2018-12-17T14:31:33.506Z,49.57
2018-12-17T14:33:59.866Z,53.50
2018-12-17T14:36:27.997Z,46.77
2018-12-17T14:39:07.297Z,44.27
2018-12-17T14:41:41.535Z,44.40
2018-12-17T14:44:14.103Z,45.20
2018-12-17T14:46:50.881Z,49.93
2018-12-17T14:49:17.321Z,49.33
2018-12-17T14:51:49.430Z,47.50
2018-12-17T14:54:21.359Z,45.77
2018-12-17T14:56:56.539Z,47.20
2018-12-17T14:59:28.277Z,39.60
2018-12-17T15:02:00.139Z,45.83
2018-12-17T15:07:03.469Z,48.13
2018-12-17T15:09:29.842Z,42.27
2018-12-17T15:11:56.130Z,42.90
2018-12-17T15:14:23.310Z,40.40
2018-12-17T15:16:50.606Z,48.50
2018-12-17T15:19:17.706Z,47.00
2018-12-17T15:21:44.363Z,42.30
2018-12-17T15:24:11.269Z,43.33
2018-12-17T15:26:37.487Z,40.37
2018-12-17T15:29:03.869Z,45.97
2018-12-17T15:31:43.100Z,44.60
2018-12-17T15:34:07.114Z,46.63
2018-12-17T15:36:34.422Z,42.57
2018-12-17T15:39:06.265Z,39.97
2018-12-17T15:41:32.446Z,40.90
2018-12-17T15:43:58.741Z,39.43
2018-12-17T15:46:24.915Z,39.63
2018-12-17T15:48:52.286Z,38.93
2018-12-17T15:51:18.704Z,48.13
2018-12-17T15:53:46.283Z,41.77
2018-12-17T15:56:12.590Z,40.13
2018-12-17T15:58:39.917Z,38.10
2018-12-17T16:01:06.925Z,39.97
2018-12-17T16:03:33.076Z,41.47
2018-12-17T16:05:59.469Z,47.23
2018-12-17T16:08:25.736Z,40.17
2018-12-17T16:10:54.120Z,40.80
2018-12-17T16:13:25.119Z,38.90
2018-12-17T16:15:51.236Z,38.60
2018-12-17T16:18:18.548Z,36.17
2018-12-17T16:20:46.007Z,44.03
2018-12-17T16:23:12.507Z,36.60
2018-12-17T16:25:42.503Z,37.70
2018-12-17T16:28:09.841Z,35.43
2018-12-17T16:30:41.771Z,34.30
2018-12-17T16:33:08.062Z,40.77
2018-12-17T16:35:34.378Z,35.10
2018-12-17T16:38:08.191Z,38.80
2018-12-17T16:40:35.719Z,41.13
2018-12-17T16:43:05.507Z,43.93
2018-12-17T16:45:33.950Z,39.23
2018-12-17T16:48:01.201Z,38.20
2018-12-17T16:50:27.376Z,38.07
2018-12-17T16:52:59.084Z,37.43
2018-12-17T16:55:25.645Z,40.67
2018-12-17T16:57:51.949Z,38.50
2018-12-17T17:00:19.312Z,36.80
2018-12-17T17:02:46.555Z,39.47
2018-12-17T17:05:12.963Z,41.83
2018-12-17T17:07:42.989Z,35.40
2018-12-17T17:10:12.383Z,40.00
2018-12-17T17:12:44.576Z,44.80
2018-12-17T17:15:15.014Z,40.60
2018-12-17T17:17:41.231Z,37.30
2018-12-17T17:20:09.554Z,43.13
2018-12-17T17:22:40.290Z,46.17
2018-12-17T17:25:20.388Z,46.93
2018-12-17T17:27:50.592Z,46.03
2018-12-17T17:30:16.906Z,45.90
2018-12-17T17:32:43.165Z,49.97
2018-12-17T17:35:09.512Z,45.10
2018-12-17T17:37:36.872Z,52.10
2018-12-17T17:40:07.377Z,48.03
2018-12-17T17:42:33.657Z,48.87
2018-12-17T17:45:00.299Z,53.00
2018-12-17T17:47:26.615Z,47.70
2018-12-17T17:49:52.810Z,51.40
2018-12-17T17:52:19.127Z,48.17
2018-12-17T17:54:49.929Z,50.17
2018-12-17T17:57:16.240Z,54.77
2018-12-17T17:59:45.244Z,51.27
2018-12-17T18:02:18.602Z,57.43
2018-12-17T18:04:40.251Z,49.43
2018-12-17T18:07:06.367Z,52.50
2018-12-17T18:09:32.449Z,48.43
2018-12-17T18:12:00.517Z,45.93
2018-12-17T18:14:27.119Z,49.00
2018-12-17T18:16:53.521Z,50.20
2018-12-17T18:19:28.125Z,55.87
2018-12-17T18:21:56.519Z,52.97
2018-12-17T18:24:23.080Z,56.77
2018-12-17T18:26:58.061Z,53.43
2018-12-17T18:29:24.427Z,53.37
2018-12-17T18:32:00.587Z,56.77
2018-12-17T18:34:28.211Z,43.87
2018-12-17T18:37:02.097Z,52.60
2018-12-17T18:39:34.539Z,43.60
2018-12-17T18:42:01.427Z,48.67
2018-12-17T18:44:28.816Z,48.27
2018-12-17T18:46:59.183Z,45.87
2018-12-17T18:49:25.533Z,45.83
2018-12-17T18:51:51.717Z,44.70
2018-12-17T18:54:18.077Z,44.77
2018-12-17T18:56:44.334Z,44.03
2018-12-17T18:59:10.481Z,41.13
2018-12-17T19:01:37.896Z,40.33
2018-12-17T19:04:14.261Z,45.70
2018-12-17T19:06:45.506Z,43.90
2018-12-17T19:09:11.694Z,48.40
2018-12-17T19:11:38.080Z,44.97
2018-12-17T19:14:04.395Z,47.03
2018-12-17T19:16:31.728Z,46.07
2018-12-17T19:18:59.070Z,40.97
2018-12-17T19:21:28.559Z,39.50
2018-12-17T19:23:54.895Z,40.80
2018-12-17T19:26:21.419Z,44.30
2018-12-17T19:28:47.897Z,43.93
2018-12-17T19:31:14.755Z,41.43
2018-12-17T19:33:42.056Z,41.43
2018-12-17T19:36:09.843Z,42.53
2018-12-17T19:38:37.046Z,41.60
2018-12-17T19:41:04.352Z,37.97
2018-12-17T19:43:30.788Z,38.83
2018-12-17T19:45:59.818Z,40.10
2018-12-17T19:48:27.182Z,34.20
2018-12-17T19:50:55.574Z,38.73
2018-12-17T19:53:21.843Z,41.47
2018-12-17T19:55:49.213Z,38.80
2018-12-17T19:58:15.540Z,38.23
2018-12-17T20:00:43.045Z,35.83
2018-12-17T20:03:10.315Z,35.73
2018-12-17T20:05:38.120Z,35.60
2018-12-17T20:08:04.463Z,37.53
2018-12-17T20:10:31.465Z,36.60
2018-12-17T20:12:58.880Z,36.77
2018-12-17T20:15:25.831Z,33.60
2018-12-17T20:17:52.236Z,30.07
2018-12-17T20:20:26.556Z,38.40
2018-12-17T20:22:52.990Z,36.20
2018-12-17T20:25:19.314Z,36.43
2018-12-17T20:27:45.690Z,39.80
2018-12-17T20:30:12.696Z,35.47
2018-12-17T20:35:41.563Z,33.17
2018-12-17T20:38:07.859Z,33.33
2018-12-17T20:40:35.534Z,36.13
2018-12-17T20:43:01.923Z,32.60
2018-12-17T20:45:28.039Z,29.70
2018-12-17T20:47:54.391Z,34.30
2018-12-17T20:50:24.510Z,31.00
2018-12-17T20:52:55.183Z,33.73
2018-12-17T20:55:21.829Z,34.67
2018-12-17T20:57:48.911Z,31.93
2018-12-17T21:00:16.820Z,31.03
2018-12-17T21:02:47.006Z,33.77
2018-12-17T21:05:13.670Z,35.87
2018-12-17T21:07:40.789Z,33.63
2018-12-17T21:10:09.455Z,32.50
2018-12-17T21:12:38.897Z,37.37
2018-12-17T21:15:07.880Z,33.60
2018-12-17T21:17:35.538Z,32.13
2018-12-17T21:20:41.066Z,36.87
2018-12-17T21:23:43.748Z,35.80
2018-12-17T21:26:43.363Z,30.13
2018-12-17T21:29:41.171Z,36.00
2018-12-17T21:32:39.457Z,37.73
2018-12-17T21:35:37.678Z,36.50
2018-12-17T21:38:36.794Z,34.43
2018-12-17T21:41:34.381Z,35.73
2018-12-17T21:44:34.946Z,35.40
2018-12-17T21:47:36.645Z,49.87
2018-12-17T21:50:07.522Z,35.40
2018-12-17T21:52:33.965Z,33.87
2018-12-17T21:55:00.250Z,33.93
2018-12-17T21:57:35.130Z,34.10
2018-12-17T22:00:08.397Z,37.27
2018-12-17T22:02:43.779Z,36.33
2018-12-17T22:05:10.011Z,35.97
2018-12-17T22:07:38.494Z,32.83
2018-12-17T22:10:05.155Z,35.63
2018-12-17T22:12:31.377Z,37.57
2018-12-17T22:14:57.607Z,35.00
2018-12-17T22:17:28.501Z,38.33
2018-12-17T22:19:54.823Z,41.67
2018-12-17T22:22:21.170Z,39.77
2018-12-17T22:24:47.327Z,41.37
2018-12-17T22:27:13.538Z,39.50
2018-12-17T22:29:39.778Z,41.70
2018-12-17T22:32:06.012Z,41.47
2018-12-17T22:34:32.056Z,41.13
2018-12-17T22:36:58.361Z,50.67
2018-12-17T22:39:28.824Z,38.40
2018-12-17T22:41:54.952Z,40.27
2018-12-17T22:44:21.141Z,36.87
2018-12-17T22:46:47.380Z,45.13
2018-12-17T22:49:18.297Z,36.00
2018-12-17T22:51:44.584Z,43.33
2018-12-17T22:54:15.654Z,34.70
2018-12-17T22:56:41.750Z,41.17
2018-12-17T22:59:07.985Z,37.03
2018-12-17T23:01:35.397Z,35.60
2018-12-17T23:04:01.612Z,35.70
2018-12-17T23:06:27.745Z,38.10
2018-12-17T23:09:03.504Z,37.87
2018-12-17T23:11:48.289Z,39.20
2018-12-17T23:14:26.557Z,38.00
2018-12-17T23:17:06.095Z,38.43
2018-12-17T23:19:40.361Z,39.47
2018-12-17T23:22:07.841Z,38.87
2018-12-17T23:24:39.146Z,38.57
2018-12-17T23:27:05.398Z,42.03
2018-12-17T23:29:32.320Z,36.90
2018-12-17T23:32:01.912Z,43.03
2018-12-17T23:34:28.177Z,39.97
2018-12-17T23:36:54.543Z,39.70
2018-12-17T23:39:20.966Z,36.73
2018-12-17T23:41:47.325Z,35.00
2018-12-17T23:44:13.508Z,35.83
2018-12-17T23:46:39.694Z,34.13
2018-12-17T23:49:05.913Z,35.27
2018-12-17T23:51:33.189Z,35.07
2018-12-17T23:53:59.338Z,39.93
2018-12-17T23:56:25.450Z,41.70
2018-12-17T23:58:53.816Z,36.27
